Lansing, MI

4:05 PM EST on February 25, 2017 (GMT -0500)
Capital City | | Change Station
Active Advisory: Flood Advisory Active Notice: Flood Advisory

Elev 860 ft 42.78 °N, 84.59 °W | Updated 7 minutes ago

Light Snow
Light Snow
25 °F
Feels Like 11 °F
N
21
Wind Variable Wind from West
Gusts 37 mph

Today
High -- | Low -- °F
--% Chance of Precip.
Yesterday
High -- | Low -- °F
Precip. -- in
Pressure 29.78 in
Visibility 4.0 miles
Clouds Scattered Clouds 2200 ft
Mostly Cloudy 3000 ft
Overcast 3900 ft
Windchill 11 °F
Dew Point 15 °F
Humidity 66%
Rainfall 0.15 in
Snow Depth Not available.
7:20 AM 6:23 PM
Waning Crescent, 1% visible
SPECI KLAN 252058Z 28018G32KT 4SM R28L/4500VP6000FT -SN SCT022 BKN030 OVC039 M04/M09 A2978 RMK AO2 PK WND 27031/2054 P0000 T10391094 $
Pressure 29.78 in
Visibility 4.0 miles
Clouds Scattered Clouds 2200 ft
Mostly Cloudy 3000 ft
Overcast 3900 ft
Windchill 11 °F
Dew Point 15 °F
Humidity 66%
Rainfall 0.15 in
Snow Depth Not available.
7:20 AM 6:23 PM
Waning Crescent, 1% visible
SPECI KLAN 252058Z 28018G32KT 4SM R28L/4500VP6000FT -SN SCT022 BKN030 OVC039 M04/M09 A2978 RMK AO2 PK WND 27031/2054 P0000 T10391094 $

Get Your Daily Forecast Email!

Thanks for signing up!

Be on the lookout for a verification email in your inbox.

You'll start receiving the daily forecast at 8 AM.

×

10-Day Weather Forecast

Almanac

Astronomy

Feb. 25, 2017 Rise Set
Actual Time
Civil Twilight
Nautical Twilight
Astronomical Twilight
Moon
Length of Visible Light
Length of Day
Tomorrow will be .
, % of the Moon is Illuminated

Today's Extremes

State Highs State Lows

Community

WunderPhotos

Upload Photos

1,962,540 photos uploaded!

WunderBlog® & News

Nearby

Air Quality

  Air Quality AQ Index Pollutant
Not available.

Snow Depth

Station Depth Elevation

Earthquake Activity

City Distance Mag. Time & Date
Minimum magnitude displayed is 2.5.

Coastal Water Temperatures

Place Temperature

Stations

Nearby Weather Stations

Station Location Temp. Windchill Dew Point Humidity Wind Precip. Elev Updated Type
                   

Watches & Warnings

Flood Advisory
Issued: 10:29 AM EST Feb. 25, 2017 – National Weather Service

The flood advisory continues for
the Maple River at Maple Rapids
* until further notice.
* At 10 am Saturday the stage was 7.0 feet.
* Bankfull stage is 7.0 feet.
* Flood stage is 9.0 feet.
* Forecast, the river will rise to near 8.3 feet by Monday early
afternoon.
* Impact, at 9.0 feet... expect minor flooding of County line Road and
a home along County line Road.


Lat... Lon 4298 8493 4308 8468 4310 8457 4317 8456
      4314 8471 4302 8495